Weather observations for the past three days for
Langlade County Airport
Metric (Imperial)
Date Time (cdt) Wind (kph) Vis. (km) Weather Sky Cond. Temperature (ºC) Relative Humidity Wind Chill (°C) Heat Index (°C) Pressure Precipitation (cm)
Air Dwpt 6 hour altimeter (cm) sea level (mb) 1 hr 3 hr 6 hr
Max. Min.
31 09:55 SE 15 8.05 Fog/Mist OVC003 23 23 100% 75.95 0.0
31 09:35 SE 15 6.44 Fog/Mist OVC003 22.5 22.5 100% 75.95 0.0
31 09:15 SE 15 4.83 Fog/Mist OVC003 22.3 22.3 100% 75.92 0.0
31 08:55 SE 11 4.83 Fog/Mist OVC003 22.2 22.2 100% 75.95 0.0
31 08:35 SE 13 3.22 Fog/Mist OVC003 22 22 100% 75.95 0.0
31 08:10 SE 11 2.41 Fog/Mist OVC003 21.7 21.7 100% 75.95 0.0
31 07:55 SE 17 4.02 Fog/Mist OVC003 21.9 21.9 100% 75.95 0.0
31 07:35 SE 17 2.82 Fog/Mist OVC003 21.6 21.6 100% 75.95 0.0
31 07:15 SE 11 2.41 Fog/Mist OVC003 21.5 21.5 100% 75.95 0.0
31 06:55 SE 20 1.21 Fog/Mist OVC003 21.5 21.5 21.5 21.3 100% 75.95 0.0
31 06:35 SE 11 4.02 Fog/Mist OVC003 21.3 21.3 100% 75.92 0.0
31 06:15 SE 15 2.82 Fog/Mist OVC003 21.4 21.4 100% 75.95 0.0
31 05:55 SE 13 0.80 Fog OVC003 21.5 21.5 100% 75.95 0.0
31 05:35 E 13 0.80 Fog OVC003 21.3 21.3 100% 75.95 0.0
31 05:15 E 7 0.80 Fog OVC003 21.4 21.4 100% 75.97 0.0
31 04:55 SE 11 1.61 Fog/Mist OVC003 21.3 21.3 100% 76 0.0
31 04:35 E 13 1.21 Fog/Mist OVC003 21.3 21.3 100% 75.97 0.0
31 04:15 E 11 1.21 Fog/Mist OVC003 21.3 21.3 100% 75.97 0.0
31 03:55 E 9 1.61 Fog/Mist OVC003 21.3 21.3 100% 76 0.0
31 03:35 E 13 1.61 Fog/Mist OVC003 21.3 21.3 100% 75.97 0.0
31 03:15 E 17 1.21 Fog/Mist OVC003 21.3 21.3 100% 75.97 0.0
31 02:55 E 13 2.01 Fog/Mist OVC003 21.3 21.3 100% 76 0.0
31 02:35 E 9 3.22 Fog/Mist OVC003 21.5 21.5 100% 76.02 0.0
31 02:15 E 13 4.02 Fog/Mist OVC003 21.5 21.5 100% 76.02 0.0
31 01:55 E 13 4.83 Fog/Mist OVC003 21.5 21.5 100% 76.02 0.0
31 01:35 E 11 6.44 Fog/Mist BKN003 OVC007 21.5 21.5 100% 76.05 0.0
31 01:15 E 11 8.05 Fog/Mist BKN005 OVC011 21.5 21.5 100% 76.1 0.0
31 00:55 SE 11 8.05 Fog/Mist SCT005 OVC013 21.5 21.5 23 21.5 100% 76.12 0.0 0.1
31 00:35 SE 11 8.05 Fog/Mist BKN005 OVC015 21.5 21.5 100% 76.15 0.0
31 00:15 SE 7 8.05 Fog/Mist OVC005 21.5 21.5 100% 76.12 0.0
30 23:55 SE 7 8.05 Fog/Mist OVC005 21.5 21.5 100% 76.15 0.0
30 23:35 SE 9 8.05 Fog/Mist OVC005 21.5 21.5 100% 76.15 0.0
30 23:15 SE 9 11.27 Mostly Cloudy BKN005 21.6 21.6 100% 76.15 0.0
30 22:55 E 7 11.27 Overcast OVC005 21.8 21.8 100% 76.1 0.0 0.05
30 22:35 E 9 11.27 Light Rain BKN005 BKN021 BKN041 21.8 21.8 100% 76.12 0.0 0.05
30 22:15 E 9 8.05 Rain OVC005 22 22 100% 76.12 0.0 0.05
30 21:55 E 9 11.27 Light Rain OVC005 22.3 22.1 99% 76.15 0.0
30 21:35 SE 11 11.27 Overcast OVC005 22.3 22.2 99% 76.15 0.0
30 21:15 E 11 11.27 Overcast OVC005 22.4 22.2 99% 76.12 0.0
30 20:55 E 15 11.27 Overcast OVC005 22.5 22.2 98% 76.1 0.0
30 20:35 E 11 11.27 Overcast OVC005 22.5 22.2 98% 76.07 0.0
30 20:15 E 7 11.27 Overcast OVC005 22.5 22.2 98% 76.07 0.0
30 19:55 E 11 11.27 Overcast OVC007 22.5 22.1 98% 76.07 0.0
30 19:35 E 11 11.27 Overcast OVC007 22.7 22.2 97% 76.07 0.0
30 19:15 E 9 11.27 Overcast BKN009 BKN013 OVC030 22.9 22.2 96% 76.07 0.0
30 18:55 E 9 11.27 Overcast BKN009 BKN013 OVC028 23 22.4 24.1 23 96% 76.07 0.0
30 18:35 E 7 16.09 Overcast BKN009 OVC026 23.1 22.3 95% 76.07 0.0
30 18:15 E 9 16.09 Light Drizzle BKN011 OVC026 23.3 22.3 94% 76.07 0.0
30 17:55 E 11 16.09 Overcast OVC013 23.6 22.2 92% 76.05 0.0
30 17:35 E 15 16.09 Overcast OVC011 23.8 22.1 90% 76.05 0.0
30 17:15 E 11 16.09 Mostly Cloudy BKN011 24 22.1 89% 24 76.02 0.0
30 16:55 E 13 16.09 Mostly Cloudy BKN011 BKN029 24 22.1 89% 24 76 0.0
30 16:35 E 7 16.09 Overcast SCT011 OVC029 24 22 89% 24 76.02 0.0
30 16:15 E 9 16.09 Overcast BKN011 OVC029 24 22 89% 24 76.02 0.0
30 15:55 E 9 16.09 Overcast SCT011 BKN017 OVC031 24 21.9 88% 24 76.05 0.0
30 15:35 E 9 16.09 Overcast SCT009 OVC017 23.5 22 91% 76.05 0.0
30 15:15 E 7 16.09 Overcast BKN012 OVC019 23.7 22 90% 76.07 0.0
30 14:55 E 9 16.09 Overcast OVC010 23.3 21.9 92% 76.07 0.0
30 14:35 E 9 16.09 Overcast BKN010 OVC014 23.1 21.7 92% 76.1 0.0
30 14:15 E 6 16.09 Overcast OVC012 23.1 21.6 91% 76.1 0.0
30 13:55 SE 11 16.09 Overcast OVC012 23.5 21.5 89% 76.1 0.0
30 13:35 SE 13 16.09 Overcast OVC012 24 21.5 86% 24 76.07 0.0
30 13:15 E 15 16.09 Overcast OVC012 23.7 21.6 88% 76.05 0.0
30 12:55 E 17 16.09 Overcast OVC012 23.9 21.5 23.9 19.7 86% 24 76.05 0.0
30 12:35 E 20 16.09 Overcast OVC009 23.2 21.6 91% 76.05 0.0
30 12:15 E 17 11.27 Overcast BKN005 OVC009 22.5 21.6 95% 76.05 0.0
30 11:55 E 15 4.83 Fog/Mist OVC003 21.7 21.4 98% 76.05 0.0
30 11:35 E 13 4.83 Fog/Mist OVC003 21.5 21.3 99% 76.07 0.0
30 11:15 E 13 4.83 Fog/Mist OVC003 21.4 21.2 99% 76.07 0.0
30 10:55 E 15 4.83 Fog/Mist OVC003 21.3 21.2 99% 76.07 0.0
30 10:35 E 13 4.83 Fog/Mist OVC003 21.2 21.1 99% 76.07 0.0
30 10:15 E 13 6.44 Fog/Mist OVC003 21.1 21 99% 76.07 0.0
30 09:55 E 11 6.44 Fog/Mist OVC003 21.2 21 99% 76.07 0.0
30 09:35 E 15 8.05 Fog/Mist OVC003 21.3 21.1 99% 76.05 0.0
30 09:10 E 13 6.44 Fog/Mist OVC003 21.1 21.1 100% 76.02 0.0
30 08:55 E 11 4.83 Fog/Mist OVC003 20.7 20.7 100% 76.02 0.0
30 08:35 E 9 4.83 Fog/Mist OVC003 20.5 20.5 100% 76.05 0.0
30 08:15 E 9 4.83 Fog/Mist OVC003 20.3 20.3 100% 76.05 0.0
30 07:55 E 7 4.02 Fog/Mist SCT003 OVC027 20.2 20.2 100% 76.05 0.0
30 07:35 E 7 4.02 Fog/Mist SCT003 OVC027 20 20 100% 76.05 0.0
30 07:15 Calm 4.02 Fog/Mist OVC027 20 20 100% 76.07 0.0
30 06:55 Calm 4.02 Fog/Mist OVC025 19.7 19.7 19.8 18.8 100% 76.05 0.0
30 06:35 E 6 4.02 Fog/Mist SCT003 OVC025 19.7 19.7 100% 76.02 0.0
30 06:15 NE 7 4.83 Fog/Mist SCT003 OVC025 19.6 19.6 100% 76.02 0.0
30 05:55 Calm 6.44 Fog/Mist OVC029 19.8 19.8 100% 76 0.0
30 05:35 Calm 6.44 Fog/Mist SCT008 OVC029 19.6 19.6 100% 76 0.0
30 05:15 Calm 6.44 Fog/Mist SCT008 OVC031 19.6 19.6 100% 76.02 0.0
30 04:55 SE 6 6.44 Fog/Mist SCT008 BKN031 19.7 19.7 100% 76 0.0
30 04:35 SE 7 8.05 Fog/Mist SCT033 SCT039 SCT060 19.7 19.7 100% 76 0.0
30 04:15 Calm 6.44 Fog/Mist SCT007 SCT040 SCT055 19.6 19.6 100% 76.02 0.0
30 03:55 SE 6 6.44 Fog/Mist CLR 19.5 19.5 100% 76.02 0.0
30 03:35 SE 6 8.05 Fog/Mist CLR 19.5 19.5 100% 76.02 0.0
30 03:15 Calm 8.05 Fog/Mist CLR 19.3 19.3 100% 76.05 0.0
30 02:55 Calm 8.05 Fog/Mist SCT110 19.3 19.3 100% 76.05 0.0
30 02:35 Calm 6.44 Light Rain SCT100 19.2 19.2 100% 76.05 0.0
30 02:15 SE 6 6.44 Fog/Mist CLR 19.1 19.1 100% 76.07 0.0
30 01:55 Calm 4.83 Fog/Mist CLR 19.1 19.1 100% 76.1 0.0
30 01:35 Calm 8.05 Fog/Mist CLR 19.3 19.3 100% 76.07 0.0
30 01:15 Calm 8.05 Fog/Mist SCT060 19.5 19.5 100% 76.1 0.0
30 00:55 SE 6 11.27 Partly Cloudy SCT009 SCT060 19.6 19.6 19.8 19.5 100% 76.1 0.0
30 00:35 S 9 11.27 Overcast SCT009 OVC060 19.7 19.7 100% 76.12 0.0
30 00:15 SE 7 11.27 Overcast OVC060 19.7 19.7 100% 76.12 0.0
29 23:55 SE 9 8.05 Fog/Mist SCT004 SCT041 OVC060 19.7 19.7 100% 76.12 0.0
29 23:35 SE 9 11.27 Overcast SCT006 OVC039 19.8 19.8 100% 76.12 0.0
29 23:15 SE 13 11.27 Overcast SCT006 OVC037 19.8 19.8 100% 76.15 0.0
29 22:55 SE 13 11.27 Overcast SCT006 OVC037 19.7 19.7 100% 76.15 0.0
29 22:35 SE 13 11.27 Overcast SCT006 SCT027 OVC035 19.7 19.7 100% 76.15 0.0
29 22:15 SE 13 8.05 Fog/Mist SCT006 SCT009 OVC035 19.6 19.6 100% 76.15 0.0
29 21:55 SE 13 11.27 Overcast BKN006 BKN012 OVC033 19.6 19.6 100% 76.15 0.0
29 21:35 SE 17 11.27 Overcast SCT008 BKN012 OVC036 19.5 19.5 100% 76.17 0.0
29 21:15 SE 13 11.27 Overcast BKN008 OVC012 19.5 19.5 100% 76.17 0.0
29 20:55 SE 13 11.27 Overcast SCT006 BKN010 OVC015 19.5 19.5 100% 76.15 0.0
29 20:35 SE 13 11.27 Overcast BKN008 OVC014 19.5 19.5 100% 76.17 0.0
29 20:15 SE 11 11.27 Overcast BKN008 OVC017 19.5 19.3 99% 76.15 0.0
29 19:55 SE 13 16.09 Overcast OVC008 19.5 19.3 99% 76.15 0.0
29 19:35 SE 11 16.09 Overcast OVC008 19.5 19.3 99% 76.15 0.0
29 19:15 SE 11 16.09 Overcast BKN008 BKN014 OVC050 19.5 19.2 98% 76.15 0.0
29 18:55 SE 13 11.27 Overcast BKN008 BKN014 OVC050 19.5 19.5 20.4 19.2 100% 76.15 0.0 0.3
29 18:35 SE 19 G 31 16.09 Overcast OVC008 19.5 19.5 100% 76.15 0.0
29 18:10 SE 15 16.09 Overcast BKN008 BKN012 OVC065 19.6 19.5 99% 76.17 0.0
29 17:35 SE 15 16.09 Overcast SCT006 BKN010 OVC050 19.5 19.5 100% 76.17 0.0
29 17:15 SE 13 16.09 Overcast SCT007 BKN016 OVC050 19.5 19.5 100% 76.17 0.0
29 16:55 SE 15 16.09 Overcast BKN007 OVC014 19.5 19.5 100% 76.2 0.0
29 16:35 SE 15 8.05 Fog/Mist BKN007 BKN012 OVC041 19.6 19.6 100% 76.23 0.0
29 16:15 SE 9 16.09 Overcast SCT010 BKN014 OVC043 19.5 19.5 100% 76.25 0.0
29 15:55 SE 11 16.09 Light Rain BKN010 OVC013 19.5 19.4 99% 76.25 0.0 0.18 0.3
29 15:35 SE 7 8.05 Light Rain SCT008 BKN013 OVC050 19.4 19.4 100% 76.28 0.0 0.15
29 15:15 SE 7 4.83 Drizzle SCT004 SCT028 OVC050 20.1 20.1 100% 76.3 0.0 0.03
29 14:55 S 9 8.05 Drizzle SCT006 BKN046 OVC050 20 20 100% 76.33 0.0 0.03
29 14:35 S 11 16.09 Light Drizzle BKN006 BKN023 OVC060 20 20 100% 76.33 0.0 0.03
29 14:15 S 13 6.44 Light Drizzle SCT008 BKN047 OVC060 20.2 20.2 100% 76.33 0.0 0.03
29 13:55 S 17 8.05 Rain OVC008 20.2 20.1 99% 76.35 0.0 0.05
29 13:35 S 11 11.27 Light Rain BKN008 OVC011 20.3 20.2 99% 76.35 0.0 0.03
29 13:15 S 11 11.27 Light Rain BKN008 BKN013 OVC048 20 20 100% 76.38 0.0 0.03
29 12:55 S 9 11.27 Light Rain SCT008 BKN049 OVC060 19.7 19.7 20.6 17.8 100% 76.38 0.0 0.2 0.53
29 12:35 S 7 6.44 Light Rain SCT008 SCT035 OVC060 19.5 19.5 100% 76.4 0.0 0.15
29 12:15 S 9 6.44 Rain SCT008 BKN031 OVC045 19.5 19.2 98% 76.4 0.0 0.08
29 11:55 SW 9 11.27 Drizzle SCT026 OVC032 19.6 19.2 98% 76.43 0.0
29 11:35 SW 11 16.09 Light Drizzle BKN034 OVC044 19.6 19.2 98% 76.43 0.0
29 11:15 SW 15 16.09 Light Drizzle SCT034 BKN046 OVC050 19.2 18.8 98% 76.45 0.0
29 10:55 SW 9 16.09 Light Drizzle SCT034 BKN055 OVC100 19.2 18.9 98% 76.45 0.0 0.13
29 10:35 SW 6 16.09 Light Rain SCT049 SCT070 OVC090 19.1 18.7 98% 76.45 0.0 0.13
29 10:15 SW 9 6.44 Light Rain SCT039 BKN070 OVC085 19 18.5 97% 76.45 0.0 0.1
29 09:55 SW 11 8.05 Rain SCT044 BKN070 OVC085 19 18.5 97% 76.48 0.0 0.18 0.18
29 09:35 SW 7 11.27 Light Rain SCT043 SCT060 OVC085 19.2 18.5 96% 76.45 0.0 0.08
29 09:15 Calm 11.27 Light Rain SCT038 BKN044 OVC065 19.5 18.5 94% 76.45 0.0 0.03
29 08:55 S 7 11.27 Light Rain SCT029 BKN037 OVC060 19.7 17.9 89% 76.43 0.0
29 08:35 SW 7 16.09 Light Rain SCT031 SCT041 BKN048 20.5 16.9 80% 76.45 0.0
29 08:15 S 7 16.09 Overcast BKN046 BKN060 OVC080 19.7 16.8 83% 76.45 0.0
29 07:55 SW 11 16.09 Overcast BKN046 BKN060 OVC080 19.4 16.1 81% 76.45 0.0
29 07:35 Calm 16.09 Overcast BKN044 BKN050 OVC080 18.7 16.3 86% 76.45 0.0
29 07:15 Calm 16.09 Overcast SCT046 BKN080 OVC100 18.1 16.5 90% 76.43 0.0
29 06:55 Calm 16.09 Partly Cloudy SCT080 SCT120 17.5 16.5 17.6 15.5 94% 76.43 0.0
29 06:35 Calm 16.09 Fair CLR 16.2 15.8 98% 76.43 0.0
29 06:15 Calm 16.09 Fair CLR 15.6 15.2 97% 76.4 0.0
29 05:55 Calm 16.09 Fair CLR 15.8 15.3 97% 76.4 0.0
29 05:35 Calm 16.09 Fair CLR 16.2 15.5 96% 76.4 0.0
29 05:15 Calm 16.09 Fair CLR 16 15.3 96% 76.4 0.0
29 04:55 Calm 16.09 Fair CLR 16.4 15.3 93% 76.4 0.0
29 04:35 Calm 16.09 Fair CLR 17 15.6 92% 76.43 0.0
29 04:15 Calm 16.09 Fair CLR 17.1 15.6 91% 76.43 0.0
29 03:55 SW 6 16.09 Fair CLR 16.5 15.5 94% 76.43 0.0
29 03:35 Calm 16.09 Fair CLR 16 15.3 96% 76.4 0.0
29 03:15 Calm 16.09 Fair CLR 16.3 15.5 95% 76.38 0.0
29 02:55 Calm 16.09 Fair CLR 16.7 15.4 92% 76.4 0.0
29 02:35 Calm 16.09 Fair CLR 16.9 15 89% 76.4 0.0
29 02:15 Calm 16.09 Fair CLR 16.9 15.3 90% 76.4 0.0
29 01:55 Calm 16.09 Fair CLR 17.2 15.2 88% 76.4 0.0
29 01:35 Calm 16.09 Fair CLR 17.5 15.1 86% 76.4 0.0
29 01:15 Calm 16.09 Fair CLR 17.4 15 86% 76.43 0.0
29 00:55 Calm 16.09 Fair CLR 17.7 14.8 24.4 16.5 83% 76.43 0.0
29 00:35 SW 6 16.09 Fair CLR 18.5 14.9 80% 76.43 0.0
29 00:15 W 6 16.09 Fair CLR 18.5 15.1 81% 76.45 0.0
28 23:55 SW 7 16.09 Fair CLR 18.7 15 79% 76.43 0.0
28 23:35 SW 11 16.09 Fair CLR 18.7 15 79% 76.43 0.0
28 23:15 SW 7 16.09 Fair CLR 17 14.2 84% 76.43 0.0
28 22:55 Calm 16.09 Fair CLR 16.5 13.7 84% 76.43 0.0
28 22:35 Calm 16.09 Fair CLR 17 14.6 86% 76.43 0.0
28 22:15 Calm 16.09 Fair CLR 17.5 14.5 83% 76.43 0.0
28 21:55 Calm 16.09 Fair CLR 17.5 14.2 81% 76.43 0.0
28 21:35 Calm 16.09 Fair CLR 17.6 14.5 82% 76.43 0.0
28 21:15 Calm 16.09 Fair CLR 18 14.8 82% 76.43 0.0
28 20:55 Calm 16.09 Fair CLR 17.8 15 84% 76.43 0.0
28 20:35 Calm 16.09 Fair CLR 18.2 14.8 81% 76.43 0.0
28 20:15 Calm 16.09 Fair CLR 19.2 14.7 75% 76.43 0.0
28 19:55 Calm 16.09 Fair CLR 19.9 14.5 71% 76.43 0.0
28 19:35 Calm 16.09 Fair CLR 22 14.8 64% 76.4 0.0
28 19:15 SW 6 16.09 Fair CLR 24 14.3 55% 25 76.4 0.0
28 18:55 W 7 16.09 Fair CLR 24.9 13.8 28.4 24.9 50% 26 76.4 0.0
28 18:35 W 11 16.09 Partly Cloudy SCT060 26 13.3 45% 26 76.4 0.0
28 18:15 SW 9 16.09 Fair CLR 26.9 13.3 43% 27 76.43 0.0
28 17:55 W 17 16.09 Fair CLR 27 12.7 41% 27 76.43 0.0
28 17:35 W 13 16.09 Fair CLR 27.1 13.3 43% 27 76.43 0.0
28 17:15 W 13 16.09 Partly Cloudy SCT065 27.7 13.1 41% 27 76.45 0.0
28 16:55 SW 9 16.09 Partly Cloudy SCT065 27.9 13.3 41% 28 76.45 0.0
28 16:35 W 7 16.09 Partly Cloudy SCT065 28 13.4 41% 28 76.43 0.0
28 16:15 NW 11 16.09 Partly Cloudy SCT065 27.8 13 40% 27 76.45 0.0
28 15:55 SW 7 16.09 Partly Cloudy SCT065 27.9 13 40% 28 76.45 0.0
28 15:35 W 15 16.09 Fair CLR 28.3 12.8 38% 28 76.45 0.0
28 15:15 NW 9 16.09 Partly Cloudy SCT060 SCT070 27.8 12.7 39% 27 76.45 0.0
28 14:55 W 11 G 17 16.09 Mostly Cloudy SCT060 BKN070 27.8 12.5 39% 27 76.48 0.0
28 14:35 W 19 16.09 Partly Cloudy SCT060 SCT070 27.7 13.2 41% 27 76.5 0.0
28 14:15 NW 6 16.09 Partly Cloudy SCT060 26 12.2 42% 26 76.53 0.0
28 13:55 W 9 16.09 Fair CLR 26.9 11.8 39% 27 76.53 0.0
28 13:35 W 11 16.09 Partly Cloudy SCT060 27 12.2 40% 27 76.56 0.0
28 13:15 W 13 16.09 Partly Cloudy SCT060 26.7 12.7 42% 27 76.56 0.0
28 12:55 W 11 16.09 Partly Cloudy SCT060 26.5 12.9 26.9 14.6 43% 27 76.58 0.0
28 12:35 W 9 16.09 Partly Cloudy SCT060 25.8 13 45% 26 76.58 0.0
28 12:15 W 9 16.09 Partly Cloudy SCT060 25.5 12.3 44% 26 76.61 0.0
28 11:55 W 7 16.09 Partly Cloudy SCT050 SCT060 25 12.3 45% 26 76.63 0.0
28 11:35 SW 6 16.09 Partly Cloudy SCT048 24.9 13.2 48% 26 76.61 0.0
28 11:15 Calm 16.09 Fair CLR 25.3 13.8 49% 26 76.63 0.0
28 10:55 Calm 16.09 Fair CLR 24.2 14.9 56% 25 76.63 0.0
28 10:35 Calm 16.09 Fair CLR 23.8 15.2 59% 76.63 0.0
28 10:15 Calm 16.09 Fair CLR 23 15.6 63% 76.63 0.0
Date Time (cdt) Wind (kph) Vis. (km) Weather Sky Cond. Air Dwpt Max. Min. Relative Humidity Wind Chill (°C) Heat Index (°C) altimeter (cm) sea level (mb) 1 hr 3 hr 6 hr
6 hour
Temperature (ºC) Pressure Precipitation (cm)